Time,TemperatureF,DewpointF,PressureIn,WindDirection,WindDirectionDegrees,WindSpeedMPH,WindSpeedGustMPH,Humidity,HourlyPrecipIn,Conditions,Clouds,dailyrainin,SoftwareType,DateUTC
2013-06-10 00:05:00,63.9,60.0,29.83,NNE,24,0.0,21.0,87,0.00,,,0.01,Wunderground v.1.15,2013-06-10 05:05:00,
2013-06-10 00:10:00,63.7,59.8,29.83,NNE,24,0.0,21.0,87,0.00,,,0.00,Wunderground v.1.15,2013-06-10 05:10:00,
2013-06-10 00:15:00,63.6,60.0,29.83,NNE,24,0.0,21.0,88,0.00,,,0.00,Wunderground v.1.15,2013-06-10 05:15:00,
2013-06-10 00:20:00,63.4,59.8,29.84,NNE,24,0.0,21.0,88,0.00,,,0.00,Wunderground v.1.15,2013-06-10 05:20:00,
2013-06-10 00:30:00,63.1,59.8,29.83,NNE,24,0.0,21.0,89,0.00,,,0.00,Wunderground v.1.15,2013-06-10 05:30:00,
2013-06-10 00:35:00,63.1,59.8,29.83,NNE,24,0.0,21.0,89,0.00,,,0.00,Wunderground v.1.15,2013-06-10 05:35:00,
2013-06-10 00:40:00,63.0,59.7,29.83,NNE,24,0.0,21.0,89,0.00,,,0.00,Wunderground v.1.15,2013-06-10 05:40:00,
2013-06-10 00:45:00,62.8,59.5,29.82,NNE,24,1.0,21.0,89,0.00,,,0.00,Wunderground v.1.15,2013-06-10 05:45:00,
2013-06-10 00:55:00,62.4,59.4,29.82,NNE,22,2.0,21.0,90,0.00,,,0.00,Wunderground v.1.15,2013-06-10 05:55:00,
2013-06-10 01:00:00,62.3,59.6,29.82,NNE,22,2.0,2.0,91,0.00,,,0.00,Wunderground v.1.15,2013-06-10 06:00:00,
2013-06-10 01:05:00,62.2,59.2,29.82,NNE,22,0.0,3.0,90,0.00,,,0.00,Wunderground v.1.15,2013-06-10 06:05:00,
2013-06-10 01:15:00,61.8,59.1,29.82,NNE,22,1.0,21.0,91,0.00,,,0.00,Wunderground v.1.15,2013-06-10 06:15:00,
2013-06-10 01:20:00,61.6,58.9,29.81,NNE,22,0.0,21.0,91,0.00,,,0.00,Wunderground v.1.15,2013-06-10 06:20:00,
2013-06-10 01:25:00,61.3,58.7,29.81,NNE,26,2.0,21.0,91,0.00,,,0.00,Wunderground v.1.15,2013-06-10 06:25:00,
2013-06-10 01:35:00,60.9,58.6,29.80,NNE,29,3.0,21.0,92,0.00,,,0.00,Wunderground v.1.15,2013-06-10 06:35:00,
2013-06-10 01:40:00,60.8,58.8,29.81,NNE,15,5.0,5.0,93,0.00,,,0.00,Wunderground v.1.15,2013-06-10 06:40:00,
2013-06-10 01:50:00,60.7,58.7,29.80,NNE,30,4.0,4.0,93,0.00,,,0.00,Wunderground v.1.15,2013-06-10 06:50:00,
2013-06-10 01:55:00,60.8,58.8,29.80,NNE,22,4.0,21.0,93,0.00,,,0.00,Wunderground v.1.15,2013-06-10 06:55:00,
2013-06-10 02:00:00,60.8,58.8,29.80,NNE,22,1.0,21.0,93,0.00,,,0.00,Wunderground v.1.15,2013-06-10 07:00:00,
2013-06-10 02:10:00,60.7,58.7,29.80,NNE,29,2.0,2.0,93,0.00,,,0.00,Wunderground v.1.15,2013-06-10 07:10:00,
2013-06-10 02:15:00,60.7,58.7,29.80,NNE,29,1.0,21.0,93,0.00,,,0.00,Wunderground v.1.15,2013-06-10 07:15:00,
2013-06-10 02:20:00,60.8,58.8,29.80,NNE,33,0.0,21.0,93,0.00,,,0.00,Wunderground v.1.15,2013-06-10 07:20:00,
2013-06-10 02:25:00,60.7,58.7,29.79,NE,34,0.0,21.0,93,0.00,,,0.00,Wunderground v.1.15,2013-06-10 07:25:00,
2013-06-10 02:30:00,60.7,58.7,29.79,NNE,32,0.0,21.0,93,0.00,,,0.00,Wunderground v.1.15,2013-06-10 07:30:00,
2013-06-10 02:40:00,60.7,58.7,29.79,NNE,30,0.0,21.0,93,0.00,,,0.00,Wunderground v.1.15,2013-06-10 07:40:00,
2013-06-10 02:50:00,60.3,58.3,29.79,NNE,30,0.0,21.0,93,0.00,,,0.00,Wunderground v.1.15,2013-06-10 07:50:00,
2013-06-10 03:00:00,60.0,58.0,29.79,NNE,30,0.0,21.0,93,0.00,,,0.00,Wunderground v.1.15,2013-06-10 08:00:00,
2013-06-10 03:05:00,59.9,57.9,29.79,NNE,30,0.0,21.0,93,0.00,,,0.00,Wunderground v.1.15,2013-06-10 08:05:00,
2013-06-10 03:10:00,59.7,57.7,29.79,NNE,30,0.0,21.0,93,0.00,,,0.00,Wunderground v.1.15,2013-06-10 08:10:00,
2013-06-10 03:20:00,59.5,57.8,29.79,NNW,330,1.0,21.0,94,0.00,,,0.00,Wunderground v.1.15,2013-06-10 08:20:00,
2013-06-10 03:25:00,59.1,57.4,29.79,NNW,328,1.0,21.0,94,0.00,,,0.00,Wunderground v.1.15,2013-06-10 08:25:00,
2013-06-10 03:30:00,58.9,57.2,29.79,NNW,328,1.0,1.0,94,0.00,,,0.00,Wunderground v.1.15,2013-06-10 08:30:00,
2013-06-10 03:35:00,58.9,57.5,29.79,NNW,337,1.0,21.0,95,0.00,,,0.00,Wunderground v.1.15,2013-06-10 08:35:00,
2013-06-10 03:45:00,58.9,57.5,29.79,NNW,342,1.0,21.0,95,0.00,,,0.00,Wunderground v.1.15,2013-06-10 08:45:00,
2013-06-10 03:50:00,58.9,57.5,29.79,NNW,342,0.0,21.0,95,0.00,,,0.00,Wunderground v.1.15,2013-06-10 08:50:00,
2013-06-10 04:00:00,58.7,57.3,29.79,NNW,342,1.0,1.0,95,0.00,,,0.00,Wunderground v.1.15,2013-06-10 09:00:00,
2013-06-10 04:10:00,58.7,57.3,29.78,NNW,346,1.0,21.0,95,0.00,,,0.00,Wunderground v.1.15,2013-06-10 09:10:00,
2013-06-10 04:15:00,58.7,57.6,29.78,NNE,12,1.0,21.0,96,0.00,,,0.00,Wunderground v.1.15,2013-06-10 09:15:00,
2013-06-10 04:20:00,58.6,57.5,29.78,NNE,19,3.0,21.0,96,0.00,,,0.00,Wunderground v.1.15,2013-06-10 09:20:00,
2013-06-10 04:30:00,58.5,57.4,29.78,NNE,28,4.0,4.0,96,0.00,,,0.00,Wunderground v.1.15,2013-06-10 09:30:00,
2013-06-10 04:35:00,58.4,57.3,29.78,NNE,27,2.0,21.0,96,0.00,,,0.00,Wunderground v.1.15,2013-06-10 09:35:00,
2013-06-10 04:40:00,58.2,57.1,29.78,NNE,27,1.0,1.0,96,0.00,,,0.00,Wunderground v.1.15,2013-06-10 09:40:00,
2013-06-10 04:50:00,58.0,56.9,29.77,NNE,27,1.0,1.0,96,0.00,,,0.00,Wunderground v.1.15,2013-06-10 09:50:00,
2013-06-10 04:55:00,58.0,56.9,29.77,NNE,27,0.0,21.0,96,0.00,,,0.00,Wunderground v.1.15,2013-06-10 09:55:00,
2013-06-10 05:00:00,58.0,56.9,29.77,NNE,27,0.0,21.0,96,0.00,,,0.00,Wunderground v.1.15,2013-06-10 10:00:00,
2013-06-10 05:10:00,58.0,56.9,29.77,NNE,27,0.0,21.0,96,0.00,,,0.00,Wunderground v.1.15,2013-06-10 10:10:00,
2013-06-10 05:15:00,57.9,56.8,29.77,NNE,27,0.0,21.0,96,0.00,,,0.00,Wunderground v.1.15,2013-06-10 10:15:00,
2013-06-10 05:20:00,57.8,56.7,29.77,NNE,27,0.0,21.0,96,0.00,,,0.00,Wunderground v.1.15,2013-06-10 10:20:00,
2013-06-10 05:25:00,57.7,56.6,29.78,NNE,27,0.0,21.0,96,0.00,,,0.00,Wunderground v.1.15,2013-06-10 10:25:00,
2013-06-10 05:30:00,57.4,56.3,29.78,NNE,27,0.0,21.0,96,0.00,,,0.00,Wunderground v.1.15,2013-06-10 10:30:00,
2013-06-10 05:40:00,57.7,56.6,29.77,NNE,27,1.0,21.0,96,0.00,,,0.00,Wunderground v.1.15,2013-06-10 10:40:00,
2013-06-10 05:45:00,57.7,56.6,29.78,NNE,27,0.0,21.0,96,0.00,,,0.00,Wunderground v.1.15,2013-06-10 10:45:00,
2013-06-10 05:50:00,57.8,56.7,29.78,North,9,1.0,21.0,96,0.00,,,0.00,Wunderground v.1.15,2013-06-10 10:50:00,
2013-06-10 05:55:00,57.9,56.8,29.78,North,360,1.0,21.0,96,0.00,,,0.00,Wunderground v.1.15,2013-06-10 10:55:00,
2013-06-10 06:05:00,58.1,57.0,29.78,North,360,0.0,21.0,96,0.00,,,0.00,Wunderground v.1.15,2013-06-10 11:05:00,
2013-06-10 06:10:00,58.2,57.1,29.78,North,360,0.0,21.0,96,0.00,,,0.00,Wunderground v.1.15,2013-06-10 11:10:00,
2013-06-10 06:15:00,58.4,57.3,29.78,North,360,0.0,21.0,96,0.00,,,0.00,Wunderground v.1.15,2013-06-10 11:15:00,
2013-06-10 06:20:00,58.5,57.4,29.77,North,360,1.0,1.0,96,0.00,,,0.00,Wunderground v.1.15,2013-06-10 11:20:00,
2013-06-10 06:25:00,58.8,57.7,29.78,North,360,0.0,21.0,96,0.00,,,0.00,Wunderground v.1.15,2013-06-10 11:25:00,
2013-06-10 06:35:00,59.3,57.6,29.78,North,360,1.0,21.0,94,0.00,,,0.00,Wunderground v.1.15,2013-06-10 11:35:00,
2013-06-10 06:40:00,59.5,57.8,29.78,North,355,2.0,2.0,94,0.00,,,0.00,Wunderground v.1.15,2013-06-10 11:40:00,
2013-06-10 06:50:00,59.8,58.1,29.79,North,9,2.0,2.0,94,0.00,,,0.00,Wunderground v.1.15,2013-06-10 11:50:00,
2013-06-10 06:55:00,60.2,58.2,29.79,North,9,1.0,21.0,93,0.00,,,0.00,Wunderground v.1.15,2013-06-10 11:55:00,
2013-06-10 07:00:00,60.8,58.5,29.79,NNW,342,1.0,21.0,92,0.00,,,0.00,Wunderground v.1.15,2013-06-10 12:00:00,
2013-06-10 07:05:00,61.2,58.6,29.78,NNW,344,2.0,21.0,91,0.00,,,0.00,Wunderground v.1.15,2013-06-10 12:05:00,
2013-06-10 07:10:00,61.6,58.6,29.78,North,351,2.0,2.0,90,0.00,,,0.00,Wunderground v.1.15,2013-06-10 12:10:00,
2013-06-10 07:20:00,61.1,57.8,29.78,NNE,13,3.0,4.0,89,0.00,,,0.00,Wunderground v.1.15,2013-06-10 12:20:00,
2013-06-10 07:25:00,61.3,58.0,29.78,NNE,14,3.0,4.0,89,0.00,,,0.00,Wunderground v.1.15,2013-06-10 12:25:00,
2013-06-10 07:30:00,61.7,58.4,29.78,NNE,28,2.0,2.0,89,0.00,,,0.00,Wunderground v.1.15,2013-06-10 12:30:00,
2013-06-10 07:40:00,61.6,58.0,29.78,North,9,3.0,5.0,88,0.00,,,0.00,Wunderground v.1.15,2013-06-10 12:40:00,
2013-06-10 07:45:00,61.7,58.1,29.78,NNE,24,3.0,5.0,88,0.00,,,0.00,Wunderground v.1.15,2013-06-10 12:45:00,
2013-06-10 07:50:00,62.3,58.7,29.78,North,9,3.0,5.0,88,0.00,,,0.00,Wunderground v.1.15,2013-06-10 12:50:00,
2013-06-10 08:00:00,63.8,59.5,29.78,North,5,1.0,7.0,86,0.00,,,0.00,Wunderground v.1.15,2013-06-10 13:00:00,
2013-06-10 08:05:00,63.9,59.0,29.78,NNE,20,3.0,7.0,84,0.00,,,0.00,Wunderground v.1.15,2013-06-10 13:05:00,
2013-06-10 08:10:00,63.8,58.9,29.78,North,9,4.0,4.0,84,0.00,,,0.00,Wunderground v.1.15,2013-06-10 13:10:00,
2013-06-10 08:15:00,63.8,58.9,29.78,NNE,22,3.0,5.0,84,0.00,,,0.00,Wunderground v.1.15,2013-06-10 13:15:00,
2013-06-10 08:20:00,64.1,58.5,29.78,NNE,22,3.0,7.0,82,0.00,,,0.00,Wunderground v.1.15,2013-06-10 13:20:00,
2013-06-10 08:30:00,64.7,59.1,29.77,NNE,23,3.0,6.0,82,0.00,,,0.00,Wunderground v.1.15,2013-06-10 13:30:00,
2013-06-10 08:35:00,65.2,59.2,29.77,NNE,14,3.0,6.0,81,0.00,,,0.00,Wunderground v.1.15,2013-06-10 13:35:00,
2013-06-10 08:45:00,65.1,59.1,29.77,NNE,24,3.0,4.0,81,0.00,,,0.00,Wunderground v.1.15,2013-06-10 13:45:00,
2013-06-10 08:55:00,65.8,59.1,29.77,NNE,26,4.0,6.0,79,0.00,,,0.00,Wunderground v.1.15,2013-06-10 13:55:00,
2013-06-10 09:00:00,65.9,59.2,29.77,NE,37,4.0,4.0,79,0.00,,,0.00,Wunderground v.1.15,2013-06-10 14:00:00,
2013-06-10 09:05:00,66.7,60.3,29.77,NNE,24,4.0,5.0,80,0.00,,,0.00,Wunderground v.1.15,2013-06-10 14:05:00,
2013-06-10 09:15:00,67.5,60.4,29.77,SE,144,4.0,7.0,78,0.00,,,0.00,Wunderground v.1.15,2013-06-10 14:15:00,
2013-06-10 09:20:00,67.6,60.1,29.77,SE,132,3.0,3.0,77,0.00,,,0.00,Wunderground v.1.15,2013-06-10 14:20:00,
2013-06-10 09:30:00,68.8,60.9,29.77,NNE,23,1.0,1.0,76,0.00,,,0.00,Wunderground v.1.15,2013-06-10 14:30:00,
2013-06-10 09:35:00,69.7,61.0,29.76,NNE,17,2.0,5.0,74,0.00,,,0.00,Wunderground v.1.15,2013-06-10 14:35:00,
2013-06-10 09:45:00,69.0,60.7,29.77,North,355,2.0,5.0,75,0.00,,,0.00,Wunderground v.1.15,2013-06-10 14:45:00,
2013-06-10 09:50:00,68.5,60.3,29.76,NNE,29,3.0,3.0,75,0.00,,,0.00,Wunderground v.1.15,2013-06-10 14:50:00,
2013-06-10 09:55:00,69.2,61.3,29.76,NE,46,2.0,5.0,76,0.00,,,0.00,Wunderground v.1.15,2013-06-10 14:55:00,
2013-06-10 10:05:00,71.7,62.2,29.77,SSE,150,1.0,1.0,72,0.00,,,0.00,Wunderground v.1.15,2013-06-10 15:05:00,
2013-06-10 10:10:00,71.4,61.9,29.77,ESE,105,1.0,1.0,72,0.00,,,0.00,Wunderground v.1.15,2013-06-10 15:10:00,
2013-06-10 10:15:00,71.9,62.4,29.77,NNE,25,1.0,5.0,72,0.00,,,0.00,Wunderground v.1.15,2013-06-10 15:15:00,
2013-06-10 10:20:00,72.1,62.2,29.77,NNW,332,2.0,2.0,71,0.00,,,0.00,Wunderground v.1.15,2013-06-10 15:20:00,
2013-06-10 10:30:00,73.3,62.5,29.77,NNE,21,1.0,2.0,69,0.00,,,0.00,Wunderground v.1.15,2013-06-10 15:30:00,
2013-06-10 10:35:00,73.8,63.0,29.77,NNW,347,1.0,9.0,69,0.00,,,0.00,Wunderground v.1.15,2013-06-10 15:35:00,
2013-06-10 10:40:00,74.0,62.8,29.77,NNE,28,2.0,9.0,68,0.00,,,0.00,Wunderground v.1.15,2013-06-10 15:40:00,
2013-06-10 10:45:00,72.5,62.2,29.77,NE,34,3.0,9.0,70,0.00,,,0.00,Wunderground v.1.15,2013-06-10 15:45:00,
2013-06-10 10:50:00,73.5,63.1,29.77,NNE,15,2.0,2.0,70,0.00,,,0.00,Wunderground v.1.15,2013-06-10 15:50:00,
2013-06-10 11:00:00,74.4,63.1,29.77,NW,323,2.0,2.0,68,0.00,,,0.00,Wunderground v.1.15,2013-06-10 16:00:00,
2013-06-10 11:05:00,74.6,63.3,29.77,NNE,17,1.0,4.0,68,0.00,,,0.00,Wunderground v.1.15,2013-06-10 16:05:00,
2013-06-10 11:10:00,74.8,63.5,29.77,NNE,23,1.0,1.0,68,0.00,,,0.00,Wunderground v.1.15,2013-06-10 16:10:00,
2013-06-10 11:15:00,74.7,63.4,29.77,North,355,1.0,9.0,68,0.00,,,0.00,Wunderground v.1.15,2013-06-10 16:15:00,
2013-06-10 11:20:00,75.8,63.6,29.77,NNW,337,2.0,9.0,66,0.00,,,0.00,Wunderground v.1.15,2013-06-10 16:20:00,
2013-06-10 11:30:00,75.5,63.3,29.77,NE,49,3.0,3.0,66,0.00,,,0.00,Wunderground v.1.15,2013-06-10 16:30:00,
2013-06-10 11:35:00,76.5,63.9,29.77,NW,322,1.0,9.0,65,0.00,,,0.00,Wunderground v.1.15,2013-06-10 16:35:00,
2013-06-10 11:40:00,76.6,64.0,29.76,NNW,334,3.0,9.0,65,0.00,,,0.00,Wunderground v.1.15,2013-06-10 16:40:00,
2013-06-10 11:50:00,76.0,63.4,29.77,NNE,29,3.0,9.0,65,0.00,,,0.00,Wunderground v.1.15,2013-06-10 16:50:00,
2013-06-10 11:55:00,75.9,64.6,29.77,NNE,25,2.0,9.0,68,0.00,,,0.00,Wunderground v.1.15,2013-06-10 16:55:00,
2013-06-10 12:00:00,75.9,64.2,29.77,NNE,14,3.0,9.0,67,0.00,,,0.00,Wunderground v.1.15,2013-06-10 17:00:00,
2013-06-10 12:10:00,75.2,63.9,29.76,SE,142,4.0,4.0,68,0.00,,,0.00,Wunderground v.1.15,2013-06-10 17:10:00,
2013-06-10 12:15:00,75.7,64.4,29.76,SSE,147,2.0,9.0,68,0.00,,,0.00,Wunderground v.1.15,2013-06-10 17:15:00,
2013-06-10 12:20:00,76.4,64.2,29.77,NNE,19,2.0,9.0,66,0.00,,,0.00,Wunderground v.1.15,2013-06-10 17:20:00,
2013-06-10 12:30:00,76.4,63.3,29.76,NNW,335,2.0,2.0,64,0.00,,,0.00,Wunderground v.1.15,2013-06-10 17:30:00,
2013-06-10 12:35:00,76.4,64.2,29.77,North,11,1.0,3.0,66,0.00,,,0.00,Wunderground v.1.15,2013-06-10 17:35:00,
2013-06-10 12:40:00,76.9,64.7,29.76,NNW,344,1.0,9.0,66,0.00,,,0.00,Wunderground v.1.15,2013-06-10 17:40:00,
2013-06-10 12:50:00,77.3,65.1,29.76,ESE,112,1.0,1.0,66,0.00,,,0.00,Wunderground v.1.15,2013-06-10 17:50:00,
2013-06-10 12:55:00,77.1,64.4,29.76,ESE,121,1.0,9.0,65,0.00,,,0.00,Wunderground v.1.15,2013-06-10 17:55:00,
2013-06-10 13:00:00,77.1,64.0,29.76,SE,133,2.0,9.0,64,0.00,,,0.00,Wunderground v.1.15,2013-06-10 18:00:00,
2013-06-10 13:10:00,77.1,64.4,29.76,NE,45,2.0,3.0,65,0.00,,,0.00,Wunderground v.1.15,2013-06-10 18:10:00,
2013-06-10 13:15:00,77.7,65.9,29.76,SE,134,2.0,3.0,67,0.00,,,0.00,Wunderground v.1.15,2013-06-10 18:15:00,
2013-06-10 13:20:00,79.0,65.3,29.76,SE,133,1.0,5.0,63,0.00,,,0.00,Wunderground v.1.15,2013-06-10 18:20:00,
2013-06-10 13:25:00,76.8,64.1,29.76,ENE,70,3.0,5.0,65,0.00,,,0.00,Wunderground v.1.15,2013-06-10 18:25:00,
2013-06-10 13:35:00,77.1,64.9,29.75,ESE,123,2.0,8.0,66,0.00,,,0.00,Wunderground v.1.15,2013-06-10 18:35:00,
2013-06-10 13:40:00,77.2,64.5,29.75,East,88,2.0,8.0,65,0.00,,,0.00,Wunderground v.1.15,2013-06-10 18:40:00,
2013-06-10 13:45:00,76.8,64.6,29.75,North,10,3.0,8.0,66,0.00,,,0.00,Wunderground v.1.15,2013-06-10 18:45:00,
2013-06-10 13:50:00,77.8,64.6,29.75,SSW,198,3.0,3.0,64,0.00,,,0.00,Wunderground v.1.15,2013-06-10 18:50:00,
2013-06-10 14:00:00,77.5,64.4,29.75,ESE,113,3.0,8.0,64,0.00,,,0.00,Wunderground v.1.15,2013-06-10 19:00:00,
2013-06-10 14:05:00,76.6,65.2,29.75,East,91,4.0,9.0,68,0.00,,,0.00,Wunderground v.1.15,2013-06-10 19:05:00,
2013-06-10 14:10:00,76.8,64.6,29.75,East,98,4.0,4.0,66,0.00,,,0.00,Wunderground v.1.15,2013-06-10 19:10:00,
2013-06-10 14:20:00,77.0,64.3,29.74,ESE,111,3.0,8.0,65,0.00,,,0.00,Wunderground v.1.15,2013-06-10 19:20:00,
2013-06-10 14:25:00,78.0,65.7,29.74,SSE,157,1.0,8.0,66,0.00,,,0.00,Wunderground v.1.15,2013-06-10 19:25:00,
2013-06-10 14:30:00,78.4,65.2,29.74,East,92,2.0,8.0,64,0.00,,,0.00,Wunderground v.1.15,2013-06-10 19:30:00,
2013-06-10 14:35:00,77.4,64.7,29.74,NE,56,3.0,8.0,65,0.00,,,0.00,Wunderground v.1.15,2013-06-10 19:35:00,
2013-06-10 14:45:00,77.6,64.5,29.74,ESE,115,2.0,8.0,64,0.00,,,0.00,Wunderground v.1.15,2013-06-10 19:45:00,
2013-06-10 14:50:00,78.0,65.3,29.74,NE,40,2.0,8.0,65,0.00,,,0.00,Wunderground v.1.15,2013-06-10 19:50:00,
2013-06-10 14:55:00,77.7,64.5,29.74,North,351,3.0,8.0,64,0.00,,,0.00,Wunderground v.1.15,2013-06-10 19:55:00,
2013-06-10 15:00:00,77.8,64.2,29.74,ESE,121,3.0,8.0,63,0.00,,,0.00,Wunderground v.1.15,2013-06-10 20:00:00,
2013-06-10 15:05:00,77.5,64.4,29.74,SE,130,2.0,8.0,64,0.00,,,0.00,Wunderground v.1.15,2013-06-10 20:05:00,
2013-06-10 15:15:00,78.0,64.8,29.74,ESE,117,2.0,8.0,64,0.00,,,0.00,Wunderground v.1.15,2013-06-10 20:15:00,
2013-06-10 15:20:00,78.1,65.8,29.74,ESE,115,2.0,2.0,66,0.00,,,0.00,Wunderground v.1.15,2013-06-10 20:20:00,
2013-06-10 15:30:00,77.7,64.5,29.74,East,84,2.0,2.0,64,0.00,,,0.00,Wunderground v.1.15,2013-06-10 20:30:00,
2013-06-10 15:35:00,78.4,64.8,29.74,SSW,201,2.0,8.0,63,0.00,,,0.00,Wunderground v.1.15,2013-06-10 20:35:00,
2013-06-10 15:40:00,78.9,65.7,29.74,SE,132,1.0,1.0,64,0.00,,,0.00,Wunderground v.1.15,2013-06-10 20:40:00,
2013-06-10 15:45:00,78.3,65.1,29.74,East,92,2.0,3.0,64,0.00,,,0.00,Wunderground v.1.15,2013-06-10 20:45:00,
2013-06-10 16:00:00,77.1,64.0,29.74,ESE,107,1.0,1.0,64,0.00,,,0.00,Wunderground v.1.15,2013-06-10 21:00:00,
2013-06-10 16:10:00,77.2,65.0,29.74,ESE,108,0.0,0.0,66,0.00,,,0.00,Wunderground v.1.15,2013-06-10 21:10:00,
2013-06-10 16:15:00,78.0,64.4,29.74,ESE,111,0.0,0.0,63,0.00,,,0.00,Wunderground v.1.15,2013-06-10 21:15:00,
2013-06-10 16:20:00,78.2,63.2,29.75,ESE,108,0.0,0.0,60,0.00,,,0.00,Wunderground v.1.15,2013-06-10 21:20:00,
2013-06-10 16:25:00,77.8,64.6,29.75,ESE,108,0.0,0.0,64,0.00,,,0.00,Wunderground v.1.15,2013-06-10 21:25:00,
2013-06-10 16:35:00,78.0,65.3,29.75,ESE,109,0.0,10.0,65,0.00,,,0.00,Wunderground v.1.15,2013-06-10 21:35:00,
2013-06-10 16:40:00,77.7,65.4,29.75,ESE,109,0.0,10.0,66,0.00,,,0.00,Wunderground v.1.15,2013-06-10 21:40:00,
2013-06-10 16:45:00,77.7,65.4,29.75,ESE,107,0.0,10.0,66,0.00,,,0.00,Wunderground v.1.15,2013-06-10 21:45:00,
2013-06-10 16:55:00,77.9,64.7,29.75,ESE,107,0.0,10.0,64,0.00,,,0.00,Wunderground v.1.15,2013-06-10 21:55:00,
2013-06-10 17:00:00,78.1,65.8,29.75,ESE,108,0.0,10.0,66,0.00,,,0.00,Wunderground v.1.15,2013-06-10 22:00:00,
2013-06-10 17:05:00,78.3,64.2,29.75,East,100,0.0,10.0,62,0.00,,,0.00,Wunderground v.1.15,2013-06-10 22:05:00,
2013-06-10 17:15:00,77.9,65.2,29.74,ESE,102,0.0,10.0,65,0.00,,,0.00,Wunderground v.1.15,2013-06-10 22:15:00,
2013-06-10 17:20:00,78.2,66.3,29.74,ESE,105,0.0,10.0,67,0.00,,,0.00,Wunderground v.1.15,2013-06-10 22:20:00,
2013-06-10 17:25:00,78.4,65.7,29.75,ESE,113,0.0,10.0,65,0.00,,,0.00,Wunderground v.1.15,2013-06-10 22:25:00,
2013-06-10 17:35:00,78.6,64.9,29.75,East,86,0.0,10.0,63,0.00,,,0.00,Wunderground v.1.15,2013-06-10 22:35:00,
2013-06-10 17:45:00,78.4,64.3,29.74,SSW,196,0.0,10.0,62,0.00,,,0.00,Wunderground v.1.15,2013-06-10 22:45:00,
2013-06-10 17:50:00,78.4,65.2,29.74,SSW,193,0.0,10.0,64,0.00,,,0.00,Wunderground v.1.15,2013-06-10 22:50:00,
2013-06-10 17:55:00,78.0,64.4,29.74,SSW,193,0.0,10.0,63,0.00,,,0.00,Wunderground v.1.15,2013-06-10 22:55:00,
2013-06-10 18:05:00,77.4,65.6,29.74,SSW,193,0.0,10.0,67,0.00,,,0.00,Wunderground v.1.15,2013-06-10 23:05:00,
2013-06-10 18:15:00,78.2,65.0,29.74,SSW,193,0.0,10.0,64,0.00,,,0.00,Wunderground v.1.15,2013-06-10 23:15:00,
2013-06-10 18:20:00,78.4,65.2,29.74,SSW,193,0.0,10.0,64,0.00,,,0.00,Wunderground v.1.15,2013-06-10 23:20:00,
2013-06-10 18:25:00,78.6,65.4,29.74,SSW,193,0.0,10.0,64,0.00,,,0.00,Wunderground v.1.15,2013-06-10 23:25:00,
2013-06-10 18:30:00,78.5,64.9,29.74,SSW,193,0.0,10.0,63,0.00,,,0.00,Wunderground v.1.15,2013-06-10 23:30:00,
2013-06-10 18:45:00,76.9,64.7,29.74,SSW,193,0.0,10.0,66,0.00,,,0.00,Wunderground v.1.15,2013-06-10 23:45:00,
2013-06-10 18:50:00,76.6,64.8,29.74,SSW,193,0.0,10.0,67,0.00,,,0.00,Wunderground v.1.15,2013-06-10 23:50:00,
2013-06-10 19:00:00,76.3,65.0,29.75,SSW,193,0.0,10.0,68,0.00,,,0.00,Wunderground v.1.15,2013-06-11 00:00:00,
2013-06-10 19:05:00,76.5,65.1,29.75,SSW,193,0.0,10.0,68,0.00,,,0.00,Wunderground v.1.15,2013-06-11 00:05:00,
2013-06-10 19:15:00,76.9,66.0,29.75,SSW,193,0.0,10.0,69,0.00,,,0.00,Wunderground v.1.15,2013-06-11 00:15:00,
2013-06-10 19:25:00,76.5,65.6,29.75,SSW,193,0.0,10.0,69,0.00,,,0.00,Wunderground v.1.15,2013-06-11 00:25:00,
2013-06-10 19:30:00,76.1,65.6,29.75,SSW,193,0.0,10.0,70,0.00,,,0.00,Wunderground v.1.15,2013-06-11 00:30:00,
2013-06-10 19:35:00,75.6,65.1,29.76,SSW,193,0.0,10.0,70,0.00,,,0.00,Wunderground v.1.15,2013-06-11 00:35:00,
2013-06-10 19:45:00,74.9,64.9,29.75,SSW,193,0.0,10.0,71,0.00,,,0.00,Wunderground v.1.15,2013-06-11 00:45:00,
2013-06-10 19:50:00,74.6,64.6,29.75,SSW,193,0.0,10.0,71,0.00,,,0.00,Wunderground v.1.15,2013-06-11 00:50:00,
2013-06-10 20:00:00,74.2,65.0,29.75,SSW,193,0.0,10.0,73,0.00,,,0.00,Wunderground v.1.15,2013-06-11 01:00:00,
2013-06-10 20:10:00,73.8,64.6,29.75,SSW,193,0.0,10.0,73,0.00,,,0.00,Wunderground v.1.15,2013-06-11 01:10:00,
2013-06-10 20:15:00,73.5,65.1,29.75,SSW,193,0.0,10.0,75,0.00,,,0.00,Wunderground v.1.15,2013-06-11 01:15:00,
2013-06-10 20:20:00,73.2,64.8,29.75,SSW,193,0.0,10.0,75,0.00,,,0.00,Wunderground v.1.15,2013-06-11 01:20:00,
2013-06-10 20:30:00,72.5,65.2,29.75,SSW,193,0.0,10.0,78,0.00,,,0.00,Wunderground v.1.15,2013-06-11 01:30:00,
2013-06-10 20:35:00,72.4,65.2,29.75,SSW,193,0.0,10.0,78,0.00,,,0.00,Wunderground v.1.15,2013-06-11 01:35:00,
2013-06-10 20:40:00,71.9,65.4,29.75,SSW,193,0.0,10.0,80,0.00,,,0.00,Wunderground v.1.15,2013-06-11 01:40:00,
2013-06-10 20:50:00,71.1,65.0,29.76,SSW,193,0.0,10.0,81,0.00,,,0.00,Wunderground v.1.15,2013-06-11 01:50:00,
2013-06-10 20:55:00,70.6,65.2,29.76,SSW,193,0.0,10.0,83,0.00,,,0.00,Wunderground v.1.15,2013-06-11 01:55:00,
2013-06-10 21:00:00,70.3,64.9,29.76,SSW,193,0.0,10.0,83,0.00,,,0.00,Wunderground v.1.15,2013-06-11 02:00:00,
2013-06-10 21:10:00,69.6,64.5,29.76,SSW,193,0.0,10.0,84,0.00,,,0.00,Wunderground v.1.15,2013-06-11 02:10:00,
2013-06-10 21:15:00,69.2,64.5,29.77,SSW,193,0.0,10.0,85,0.00,,,0.00,Wunderground v.1.15,2013-06-11 02:15:00,
2013-06-10 21:20:00,68.9,64.5,29.77,SSW,193,0.0,10.0,86,0.00,,,0.00,Wunderground v.1.15,2013-06-11 02:20:00,
2013-06-10 21:25:00,68.6,64.6,29.77,SSW,193,0.0,10.0,87,0.00,,,0.00,Wunderground v.1.15,2013-06-11 02:25:00,
2013-06-10 21:35:00,68.1,64.4,29.77,SSW,193,0.0,10.0,88,0.00,,,0.00,Wunderground v.1.15,2013-06-11 02:35:00,
2013-06-10 21:40:00,67.9,64.2,29.77,SSW,193,0.0,10.0,88,0.00,,,0.00,Wunderground v.1.15,2013-06-11 02:40:00,
2013-06-10 21:45:00,67.8,64.1,29.77,SSW,193,0.0,10.0,88,0.00,,,0.00,Wunderground v.1.15,2013-06-11 02:45:00,
2013-06-10 21:50:00,67.7,64.0,29.77,SSW,193,0.0,10.0,88,0.00,,,0.00,Wunderground v.1.15,2013-06-11 02:50:00,
2013-06-10 22:05:00,67.2,63.5,29.78,SSW,193,0.0,10.0,88,0.00,,,0.00,Wunderground v.1.15,2013-06-11 03:05:00,
2013-06-10 22:15:00,66.8,63.5,29.78,SSW,193,0.0,10.0,89,0.00,,,0.00,Wunderground v.1.15,2013-06-11 03:15:00,
2013-06-10 22:20:00,66.7,63.7,29.78,SSW,193,0.0,10.0,90,0.00,,,0.00,Wunderground v.1.15,2013-06-11 03:20:00,
2013-06-10 22:25:00,66.6,63.3,29.78,SSW,193,0.0,10.0,89,0.00,,,0.00,Wunderground v.1.15,2013-06-11 03:25:00,
2013-06-10 22:30:00,66.4,63.4,29.78,SSW,193,0.0,10.0,90,0.00,,,0.00,Wunderground v.1.15,2013-06-11 03:30:00,
2013-06-10 22:40:00,66.0,63.0,29.78,SSW,193,0.0,10.0,90,0.00,,,0.00,Wunderground v.1.15,2013-06-11 03:40:00,
2013-06-10 22:45:00,65.4,62.7,29.79,SSW,193,0.0,10.0,91,0.00,,,0.00,Wunderground v.1.15,2013-06-11 03:45:00,
2013-06-10 22:55:00,64.3,61.6,29.78,SSW,193,0.0,10.0,91,0.00,,,0.00,Wunderground v.1.15,2013-06-11 03:55:00,
2013-06-10 23:05:00,64.1,62.0,29.79,SSW,193,0.0,10.0,93,0.00,,,0.00,Wunderground v.1.15,2013-06-11 04:05:00,
2013-06-10 23:10:00,64.1,62.0,29.79,SSW,193,0.0,10.0,93,0.00,,,0.00,Wunderground v.1.15,2013-06-11 04:10:00,
2013-06-10 23:15:00,64.2,62.1,29.79,SSW,193,0.0,10.0,93,0.00,,,0.00,Wunderground v.1.15,2013-06-11 04:15:00,
2013-06-10 23:25:00,64.5,62.4,29.78,SSW,193,0.0,10.0,93,0.00,,,0.00,Wunderground v.1.15,2013-06-11 04:25:00,
2013-06-10 23:35:00,64.4,62.3,29.79,SSW,193,0.0,10.0,93,0.00,,,0.00,Wunderground v.1.15,2013-06-11 04:35:00,
2013-06-10 23:40:00,64.3,61.9,29.79,SSW,193,0.0,10.0,92,0.00,,,0.00,Wunderground v.1.15,2013-06-11 04:40:00,
2013-06-10 23:45:00,64.1,61.7,29.79,SSW,193,0.0,10.0,92,0.00,,,0.00,Wunderground v.1.15,2013-06-11 04:45:00,
2013-06-10 23:50:00,63.8,61.4,29.79,SSW,193,0.0,10.0,92,0.00,,,0.00,Wunderground v.1.15,2013-06-11 04:50:00,